sensor_id;sensor_type;location;lat;lon;timestamp;pressure;altitude;pressure_sealevel;temperature;humidity
63552;BME280;49698;48.072;7.800;2024-02-23T00:00:03;97650.91;;;6.79;99.01
63552;BME280;49698;48.072;7.800;2024-02-23T00:02:32;97649.53;;;6.81;98.73
63552;BME280;49698;48.072;7.800;2024-02-23T00:04:59;97650.31;;;6.82;97.80
63552;BME280;49698;48.072;7.800;2024-02-23T00:07:27;97648.13;;;6.84;97.21
63552;BME280;49698;48.072;7.800;2024-02-23T00:09:56;97647.03;;;6.85;96.57
63552;BME280;49698;48.072;7.800;2024-02-23T00:12:24;97652.38;;;6.85;95.62
63552;BME280;49698;48.072;7.800;2024-02-23T00:14:52;97653.19;;;6.85;95.34
63552;BME280;49698;48.072;7.800;2024-02-23T00:17:20;97667.13;;;6.82;95.11
63552;BME280;49698;48.072;7.800;2024-02-23T00:19:48;97664.47;;;6.82;94.51
63552;BME280;49698;48.072;7.800;2024-02-23T00:22:19;97684.25;;;6.81;94.20
63552;BME280;49698;48.072;7.800;2024-02-23T00:24:47;97688.78;;;6.81;94.07
63552;BME280;49698;48.072;7.800;2024-02-23T00:27:16;97682.19;;;6.78;93.68
63552;BME280;49698;48.072;7.800;2024-02-23T00:29:44;97683.56;;;6.76;93.72
63552;BME280;49698;48.072;7.800;2024-02-23T00:32:12;97690.28;;;6.73;93.97
63552;BME280;49698;48.072;7.800;2024-02-23T00:34:40;97691.69;;;6.71;94.26
63552;BME280;49698;48.072;7.800;2024-02-23T00:37:08;97691.47;;;6.67;94.08
63552;BME280;49698;48.072;7.800;2024-02-23T00:39:36;97692.88;;;6.65;94.20
63552;BME280;49698;48.072;7.800;2024-02-23T00:42:04;97688.91;;;6.62;93.86
63552;BME280;49698;48.072;7.800;2024-02-23T00:44:33;97683.41;;;6.58;93.67
63552;BME280;49698;48.072;7.800;2024-02-23T00:47:01;97691.69;;;6.57;93.20
63552;BME280;49698;48.072;7.800;2024-02-23T00:49:30;97714.91;;;6.56;93.70
63552;BME280;49698;48.072;7.800;2024-02-23T00:51:58;97708.00;;;6.55;93.45
63552;BME280;49698;48.072;7.800;2024-02-23T00:54:26;97705.13;;;6.52;93.42
63552;BME280;49698;48.072;7.800;2024-02-23T00:56:54;97715.63;;;6.48;93.34
63552;BME280;49698;48.072;7.800;2024-02-23T00:59:23;97712.44;;;6.46;93.21
63552;BME280;49698;48.072;7.800;2024-02-23T01:01:52;97718.41;;;6.43;93.28
63552;BME280;49698;48.072;7.800;2024-02-23T01:04:20;97728.09;;;6.39;92.95
63552;BME280;49698;48.072;7.800;2024-02-23T01:06:47;97725.22;;;6.35;92.92
63552;BME280;49698;48.072;7.800;2024-02-23T01:09:15;97733.28;;;6.30;92.59
63552;BME280;49698;48.072;7.800;2024-02-23T01:11:47;97745.38;;;6.28;92.67
63552;BME280;49698;48.072;7.800;2024-02-23T01:14:15;97761.97;;;6.25;93.00
63552;BME280;49698;48.072;7.800;2024-02-23T01:16:43;97746.06;;;6.20;92.88
63552;BME280;49698;48.072;7.800;2024-02-23T01:19:12;97749.31;;;6.17;92.73
63552;BME280;49698;48.072;7.800;2024-02-23T01:21:42;97742.66;;;6.14;92.64
63552;BME280;49698;48.072;7.800;2024-02-23T01:24:10;97735.25;;;6.11;92.56
63552;BME280;49698;48.072;7.800;2024-02-23T01:26:38;97732.38;;;6.07;92.59
63552;BME280;49698;48.072;7.800;2024-02-23T01:29:08;97742.56;;;6.05;92.45
63552;BME280;49698;48.072;7.800;2024-02-23T01:31:36;97738.31;;;6.04;92.38
63552;BME280;49698;48.072;7.800;2024-02-23T01:34:04;97738.91;;;6.01;92.08
63552;BME280;49698;48.072;7.800;2024-02-23T01:36:34;97726.66;;;6.00;91.54
63552;BME280;49698;48.072;7.800;2024-02-23T01:39:03;97736.03;;;5.98;91.73
63552;BME280;49698;48.072;7.800;2024-02-23T01:41:31;97736.28;;;5.96;91.24
63552;BME280;49698;48.072;7.800;2024-02-23T01:43:59;97735.81;;;5.94;91.25
63552;BME280;49698;48.072;7.800;2024-02-23T01:46:28;97736.91;;;5.93;91.08
63552;BME280;49698;48.072;7.800;2024-02-23T01:48:56;97726.78;;;5.90;91.23
63552;BME280;49698;48.072;7.800;2024-02-23T01:51:25;97722.81;;;5.87;91.18
63552;BME280;49698;48.072;7.800;2024-02-23T01:53:55;97728.72;;;5.84;91.11
63552;BME280;49698;48.072;7.800;2024-02-23T01:56:23;97729.03;;;5.83;91.04
63552;BME280;49698;48.072;7.800;2024-02-23T01:58:52;97723.22;;;5.81;91.12
63552;BME280;49698;48.072;7.800;2024-02-23T02:01:20;97716.28;;;5.80;90.91
63552;BME280;49698;48.072;7.800;2024-02-23T02:03:49;97720.03;;;5.79;90.58
63552;BME280;49698;48.072;7.800;2024-02-23T02:06:17;97705.41;;;5.76;90.58
63552;BME280;49698;48.072;7.800;2024-02-23T02:08:45;97705.72;;;5.75;90.91
63552;BME280;49698;48.072;7.800;2024-02-23T02:11:15;97707.09;;;5.72;90.51
63552;BME280;49698;48.072;7.800;2024-02-23T02:13:44;97697.50;;;5.71;90.61
63552;BME280;49698;48.072;7.800;2024-02-23T02:16:12;97708.47;;;5.70;91.26
63552;BME280;49698;48.072;7.800;2024-02-23T02:18:40;97707.97;;;5.68;90.81
63552;BME280;49698;48.072;7.800;2024-02-23T02:21:08;97706.38;;;5.67;91.04
63552;BME280;49698;48.072;7.800;2024-02-23T02:23:36;97712.28;;;5.63;91.07
63552;BME280;49698;48.072;7.800;2024-02-23T02:26:04;97699.28;;;5.62;90.61
63552;BME280;49698;48.072;7.800;2024-02-23T02:28:33;97703.00;;;5.61;91.14
63552;BME280;49698;48.072;7.800;2024-02-23T02:31:01;97693.72;;;5.58;90.97
63552;BME280;49698;48.072;7.800;2024-02-23T02:33:29;97699.06;;;5.58;90.72
63552;BME280;49698;48.072;7.800;2024-02-23T02:35:57;97695.88;;;5.56;90.97
63552;BME280;49698;48.072;7.800;2024-02-23T02:38:25;97693.53;;;5.55;91.21
63552;BME280;49698;48.072;7.800;2024-02-23T02:40:53;97684.22;;;5.52;90.90
63552;BME280;49698;48.072;7.800;2024-02-23T02:43:21;97686.88;;;5.52;91.54
63552;BME280;49698;48.072;7.800;2024-02-23T02:45:51;97681.88;;;5.51;91.43
63552;BME280;49698;48.072;7.800;2024-02-23T02:48:19;97685.31;;;5.51;91.31
63552;BME280;49698;48.072;7.800;2024-02-23T02:50:47;97684.00;;;5.49;91.87
63552;BME280;49698;48.072;7.800;2024-02-23T02:53:17;97693.09;;;5.48;91.98
63552;BME280;49698;48.072;7.800;2024-02-23T02:55:45;97679.47;;;5.49;91.98
63552;BME280;49698;48.072;7.800;2024-02-23T02:58:14;97679.47;;;5.49;92.38
63552;BME280;49698;48.072;7.800;2024-02-23T03:00:42;97675.75;;;5.50;92.57
63552;BME280;49698;48.072;7.800;2024-02-23T03:03:11;97681.88;;;5.51;92.13
63552;BME280;49698;48.072;7.800;2024-02-23T03:05:40;97687.47;;;5.49;92.17
63552;BME280;49698;48.072;7.800;2024-02-23T03:08:08;97697.84;;;5.51;91.96
63552;BME280;49698;48.072;7.800;2024-02-23T03:10:35;97695.97;;;5.51;92.07
63552;BME280;49698;48.072;7.800;2024-02-23T03:13:04;97684.81;;;5.49;92.19
63552;BME280;49698;48.072;7.800;2024-02-23T03:15:31;97674.94;;;5.50;91.97
63552;BME280;49698;48.072;7.800;2024-02-23T03:18:00;97690.13;;;5.49;92.17
63552;BME280;49698;48.072;7.800;2024-02-23T03:20:30;97690.13;;;5.49;92.18
63552;BME280;49698;48.072;7.800;2024-02-23T03:22:58;97695.47;;;5.49;92.16
63552;BME280;49698;48.072;7.800;2024-02-23T03:25:27;97700.53;;;5.51;91.67
63552;BME280;49698;48.072;7.800;2024-02-23T03:27:55;97697.06;;;5.50;91.76
63552;BME280;49698;48.072;7.800;2024-02-23T03:30:23;97698.13;;;5.49;91.78
63552;BME280;49698;48.072;7.800;2024-02-23T03:32:51;97686.97;;;5.47;90.93
63552;BME280;49698;48.072;7.800;2024-02-23T03:35:19;97684.31;;;5.47;91.29
63552;BME280;49698;48.072;7.800;2024-02-23T03:37:49;97679.00;;;5.47;90.68
63552;BME280;49698;48.072;7.800;2024-02-23T03:40:17;97683.53;;;5.47;90.91
63552;BME280;49698;48.072;7.800;2024-02-23T03:42:45;97674.75;;;5.46;91.04
63552;BME280;49698;48.072;7.800;2024-02-23T03:45:13;97675.53;;;5.47;90.93
63552;BME280;49698;48.072;7.800;2024-02-23T03:47:41;97672.88;;;5.47;90.65
63552;BME280;49698;48.072;7.800;2024-02-23T03:50:10;97671.00;;;5.47;90.55
63552;BME280;49698;48.072;7.800;2024-02-23T03:52:37;97664.56;;;5.48;90.30
63552;BME280;49698;48.072;7.800;2024-02-23T03:55:07;97667.25;;;5.48;89.92
63552;BME280;49698;48.072;7.800;2024-02-23T03:57:35;97664.00;;;5.51;89.45
63552;BME280;49698;48.072;7.800;2024-02-23T04:00:03;97658.66;;;5.51;89.12
63552;BME280;49698;48.072;7.800;2024-02-23T04:02:38;97657.88;;;5.51;89.25
63552;BME280;49698;48.072;7.800;2024-02-23T04:05:06;97648.00;;;5.51;89.15
63552;BME280;49698;48.072;7.800;2024-02-23T04:07:34;97640.59;;;5.48;88.49
63552;BME280;49698;48.072;7.800;2024-02-23T04:10:02;97655.00;;;5.47;88.65
63552;BME280;49698;48.072;7.800;2024-02-23T04:12:32;97655.00;;;5.47;88.15
63552;BME280;49698;48.072;7.800;2024-02-23T04:15:00;97642.78;;;5.46;88.12
63552;BME280;49698;48.072;7.800;2024-02-23T04:17:27;97651.03;;;5.45;88.18
63552;BME280;49698;48.072;7.800;2024-02-23T04:19:55;97660.44;;;5.42;87.96
63552;BME280;49698;48.072;7.800;2024-02-23T04:22:23;97646.59;;;5.40;87.28
63552;BME280;49698;48.072;7.800;2024-02-23T04:24:51;97644.50;;;5.37;87.09
63552;BME280;49698;48.072;7.800;2024-02-23T04:27:19;97657.34;;;5.35;86.67
63552;BME280;49698;48.072;7.800;2024-02-23T04:29:48;97646.97;;;5.33;86.34
63552;BME280;49698;48.072;7.800;2024-02-23T04:32:16;97662.16;;;5.33;86.22
63552;BME280;49698;48.072;7.800;2024-02-23T04:34:44;97651.00;;;5.31;85.32
63552;BME280;49698;48.072;7.800;2024-02-23T04:37:11;97651.59;;;5.28;85.01
63552;BME280;49698;48.072;7.800;2024-02-23T04:39:39;97666.00;;;5.27;84.60
63552;BME280;49698;48.072;7.800;2024-02-23T04:42:08;97654.34;;;5.23;84.52
63552;BME280;49698;48.072;7.800;2024-02-23T04:44:36;97649.59;;;5.20;84.11
63552;BME280;49698;48.072;7.800;2024-02-23T04:47:05;97654.41;;;5.18;84.13
63552;BME280;49698;48.072;7.800;2024-02-23T04:49:33;97657.63;;;5.14;84.10
63552;BME280;49698;48.072;7.800;2024-02-23T04:52:01;97649.16;;;5.12;83.88
63552;BME280;49698;48.072;7.800;2024-02-23T04:54:29;97660.91;;;5.11;83.70
63552;BME280;49698;48.072;7.800;2024-02-23T04:56:56;97654.75;;;5.11;83.05
63552;BME280;49698;48.072;7.800;2024-02-23T04:59:24;97660.38;;;5.09;83.26
63552;BME280;49698;48.072;7.800;2024-02-23T05:01:52;97664.94;;;5.09;83.10
63552;BME280;49698;48.072;7.800;2024-02-23T05:04:22;97657.25;;;5.07;83.47
63552;BME280;49698;48.072;7.800;2024-02-23T05:06:50;97660.47;;;5.04;83.11
63552;BME280;49698;48.072;7.800;2024-02-23T05:09:18;97661.53;;;5.03;83.46
63552;BME280;49698;48.072;7.800;2024-02-23T05:11:46;97651.97;;;5.02;82.92
63552;BME280;49698;48.072;7.800;2024-02-23T05:14:15;97661.03;;;5.01;82.80
63552;BME280;49698;48.072;7.800;2024-02-23T05:16:43;97659.16;;;5.02;82.63
63552;BME280;49698;48.072;7.800;2024-02-23T05:19:11;97659.47;;;5.00;82.79
63552;BME280;49698;48.072;7.800;2024-02-23T05:21:40;97655.19;;;4.99;82.47
63552;BME280;49698;48.072;7.800;2024-02-23T05:24:08;97658.94;;;4.98;82.26
63552;BME280;49698;48.072;7.800;2024-02-23T05:26:36;97653.13;;;4.96;82.39
63552;BME280;49698;48.072;7.800;2024-02-23T05:29:04;97648.88;;;4.95;82.35
63552;BME280;49698;48.072;7.800;2024-02-23T05:31:44;97662.78;;;4.92;82.37
63552;BME280;49698;48.072;7.800;2024-02-23T05:34:13;97658.81;;;4.89;82.44
63552;BME280;49698;48.072;7.800;2024-02-23T05:36:43;97662.84;;;4.87;82.50
63552;BME280;49698;48.072;7.800;2024-02-23T05:39:12;97665.28;;;4.83;82.65
63552;BME280;49698;48.072;7.800;2024-02-23T05:41:42;97679.97;;;4.81;82.89
63552;BME280;49698;48.072;7.800;2024-02-23T05:44:10;97677.31;;;4.81;82.66
63552;BME280;49698;48.072;7.800;2024-02-23T05:46:40;97677.59;;;4.79;83.06
63552;BME280;49698;48.072;7.800;2024-02-23T05:49:10;97682.13;;;4.79;83.30
63552;BME280;49698;48.072;7.800;2024-02-23T05:51:38;97676.31;;;4.77;83.28
63552;BME280;49698;48.072;7.800;2024-02-23T05:54:08;97686.94;;;4.77;83.44
63552;BME280;49698;48.072;7.800;2024-02-23T05:56:36;97684.28;;;4.77;83.30
63552;BME280;49698;48.072;7.800;2024-02-23T05:59:04;97689.88;;;4.75;83.57
63552;BME280;49698;48.072;7.800;2024-02-23T06:01:33;97686.44;;;4.75;83.63
63552;BME280;49698;48.072;7.800;2024-02-23T06:04:00;97690.19;;;4.74;83.73
63552;BME280;49698;48.072;7.800;2024-02-23T06:06:29;97692.31;;;4.72;83.78
63552;BME280;49698;48.072;7.800;2024-02-23T06:08:58;97696.06;;;4.71;83.81
63552;BME280;49698;48.072;7.800;2024-02-23T06:11:28;97687.59;;;4.69;83.66
63552;BME280;49698;48.072;7.800;2024-02-23T06:13:56;97689.72;;;4.66;84.01
63552;BME280;49698;48.072;7.800;2024-02-23T06:16:24;97685.50;;;4.65;84.02
63552;BME280;49698;48.072;7.800;2024-02-23T06:18:52;97688.16;;;4.65;83.91
63552;BME280;49698;48.072;7.800;2024-02-23T06:21:20;97688.44;;;4.64;83.98
63552;BME280;49698;48.072;7.800;2024-02-23T06:23:48;97686.06;;;4.62;84.24
63552;BME280;49698;48.072;7.800;2024-02-23T06:26:16;97687.16;;;4.61;84.08
63552;BME280;49698;48.072;7.800;2024-02-23T06:28:45;97682.63;;;4.62;84.18
63552;BME280;49698;48.072;7.800;2024-02-23T06:31:15;97685.28;;;4.62;84.14
63552;BME280;49698;48.072;7.800;2024-02-23T06:33:43;97680.22;;;4.60;84.04
63552;BME280;49698;48.072;7.800;2024-02-23T06:36:15;97675.72;;;4.61;83.95
63552;BME280;49698;48.072;7.800;2024-02-23T06:38:43;97680.22;;;4.60;84.04
63552;BME280;49698;48.072;7.800;2024-02-23T06:41:11;97673.84;;;4.61;84.07
63552;BME280;49698;48.072;7.800;2024-02-23T06:43:39;97674.91;;;4.60;83.97
63552;BME280;49698;48.072;7.800;2024-02-23T06:46:09;97674.09;;;4.60;83.91
63552;BME280;49698;48.072;7.800;2024-02-23T06:48:37;97679.44;;;4.60;83.65
63552;BME280;49698;48.072;7.800;2024-02-23T06:51:06;97683.97;;;4.59;83.71
63552;BME280;49698;48.072;7.800;2024-02-23T06:53:36;97690.06;;;4.60;83.39
63552;BME280;49698;48.072;7.800;2024-02-23T06:56:05;97690.06;;;4.60;83.20
63552;BME280;49698;48.072;7.800;2024-02-23T06:58:33;97697.00;;;4.61;83.23
63552;BME280;49698;48.072;7.800;2024-02-23T07:01:02;97699.38;;;4.62;82.79
63552;BME280;49698;48.072;7.800;2024-02-23T07:03:33;97704.69;;;4.62;82.47
63552;BME280;49698;48.072;7.800;2024-02-23T07:06:03;97704.13;;;4.65;82.23
63552;BME280;49698;48.072;7.800;2024-02-23T07:08:31;97711.03;;;4.66;82.42
63552;BME280;49698;48.072;7.800;2024-02-23T07:10:59;97710.94;;;4.72;81.94
63552;BME280;49698;48.072;7.800;2024-02-23T07:13:27;97724.22;;;4.77;82.04
63552;BME280;49698;48.072;7.800;2024-02-23T07:15:56;97711.31;;;4.84;81.74
63552;BME280;49698;48.072;7.800;2024-02-23T07:18:25;97711.75;;;4.91;81.54
63552;BME280;49698;48.072;7.800;2024-02-23T07:20:54;97707.66;;;4.99;81.29
63552;BME280;49698;48.072;7.800;2024-02-23T07:23:22;97711.84;;;5.05;80.92
63552;BME280;49698;48.072;7.800;2024-02-23T07:25:50;97709.63;;;5.12;80.41
63552;BME280;49698;48.072;7.800;2024-02-23T07:28:18;97706.59;;;5.19;80.11
63552;BME280;49698;48.072;7.800;2024-02-23T07:30:48;97716.09;;;5.25;79.88
63552;BME280;49698;48.072;7.800;2024-02-23T07:33:16;97711.78;;;5.29;79.73
63552;BME280;49698;48.072;7.800;2024-02-23T07:35:45;97709.03;;;5.34;79.89
63552;BME280;49698;48.072;7.800;2024-02-23T07:38:14;97718.00;;;5.38;79.39
63552;BME280;49698;48.072;7.800;2024-02-23T07:40:44;97717.16;;;5.43;79.19
63552;BME280;49698;48.072;7.800;2024-02-23T07:43:13;97721.91;;;5.46;78.98
63552;BME280;49698;48.072;7.800;2024-02-23T07:45:41;97719.97;;;5.51;78.63
63552;BME280;49698;48.072;7.800;2024-02-23T07:48:09;97714.53;;;5.56;78.59
63552;BME280;49698;48.072;7.800;2024-02-23T07:50:37;97707.53;;;5.60;78.12
63552;BME280;49698;48.072;7.800;2024-02-23T07:53:05;97712.28;;;5.63;77.99
63552;BME280;49698;48.072;7.800;2024-02-23T07:55:34;97726.94;;;5.66;78.24
63552;BME280;49698;48.072;7.800;2024-02-23T07:58:03;97720.41;;;5.72;77.50
63552;BME280;49698;48.072;7.800;2024-02-23T08:00:31;97713.13;;;5.78;77.07
63552;BME280;49698;48.072;7.800;2024-02-23T08:03:01;97716.22;;;5.85;76.50
63552;BME280;49698;48.072;7.800;2024-02-23T08:05:29;97712.13;;;5.93;76.14
63552;BME280;49698;48.072;7.800;2024-02-23T08:07:57;97706.69;;;5.98;76.14
63552;BME280;49698;48.072;7.800;2024-02-23T08:10:25;97712.72;;;6.03;75.69
63552;BME280;49698;48.072;7.800;2024-02-23T08:12:55;97709.47;;;6.06;75.42
63552;BME280;49698;48.072;7.800;2024-02-23T08:15:23;97697.13;;;6.10;75.32
63552;BME280;49698;48.072;7.800;2024-02-23T08:17:50;97693.88;;;6.13;74.85
63552;BME280;49698;48.072;7.800;2024-02-23T08:20:18;97694.84;;;6.18;74.86
63552;BME280;49698;48.072;7.800;2024-02-23T08:22:46;97692.59;;;6.25;74.86
63552;BME280;49698;48.072;7.800;2024-02-23T08:25:14;97689.75;;;6.35;74.14
63552;BME280;49698;48.072;7.800;2024-02-23T08:27:43;97696.44;;;6.46;73.67
63552;BME280;49698;48.072;7.800;2024-02-23T08:30:13;97691.28;;;6.64;73.23
63552;BME280;49698;48.072;7.800;2024-02-23T08:32:41;97684.06;;;6.78;72.32
63552;BME280;49698;48.072;7.800;2024-02-23T08:35:10;97687.97;;;6.94;71.43
63552;BME280;49698;48.072;7.800;2024-02-23T08:37:38;97687.03;;;7.13;70.14
63552;BME280;49698;48.072;7.800;2024-02-23T08:40:07;97682.41;;;7.27;69.66
63552;BME280;49698;48.072;7.800;2024-02-23T08:42:36;97685.03;;;7.41;68.65
63552;BME280;49698;48.072;7.800;2024-02-23T08:45:04;97689.84;;;7.52;68.36
63552;BME280;49698;48.072;7.800;2024-02-23T08:47:34;97678.09;;;7.62;68.11
63552;BME280;49698;48.072;7.800;2024-02-23T08:50:02;97692.50;;;7.75;67.13
63552;BME280;49698;48.072;7.800;2024-02-23T08:52:31;97671.63;;;7.85;66.51
63552;BME280;49698;48.072;7.800;2024-02-23T08:54:59;97666.81;;;7.96;65.60
63552;BME280;49698;48.072;7.800;2024-02-23T08:57:27;97675.50;;;8.02;65.00
63552;BME280;49698;48.072;7.800;2024-02-23T08:59:55;97685.56;;;8.05;64.62
63552;BME280;49698;48.072;7.800;2024-02-23T09:02:25;97682.47;;;8.12;64.25
63552;BME280;49698;48.072;7.800;2024-02-23T09:04:54;97679.19;;;8.23;64.13
63552;BME280;49698;48.072;7.800;2024-02-23T09:07:22;97667.13;;;8.34;63.64
63552;BME280;49698;48.072;7.800;2024-02-23T09:09:50;97663.53;;;8.39;62.61
63552;BME280;49698;48.072;7.800;2024-02-23T09:12:18;97668.28;;;8.42;62.75
63552;BME280;49698;48.072;7.800;2024-02-23T09:14:46;97653.78;;;8.43;62.61
63552;BME280;49698;48.072;7.800;2024-02-23T09:17:14;97659.78;;;8.49;62.35
63552;BME280;49698;48.072;7.800;2024-02-23T09:19:42;97652.56;;;8.49;61.82
63552;BME280;49698;48.072;7.800;2024-02-23T09:22:12;97649.88;;;8.49;61.85
63552;BME280;49698;48.072;7.800;2024-02-23T09:24:40;97652.72;;;8.53;61.84
63552;BME280;49698;48.072;7.800;2024-02-23T09:27:08;97637.28;;;8.58;62.29
63552;BME280;49698;48.072;7.800;2024-02-23T09:29:36;97634.16;;;8.65;62.13
63552;BME280;49698;48.072;7.800;2024-02-23T09:32:05;97637.00;;;8.69;61.70
63552;BME280;49698;48.072;7.800;2024-02-23T09:34:33;97642.19;;;8.74;61.79
63552;BME280;49698;48.072;7.800;2024-02-23T09:37:01;97652.13;;;8.82;61.97
63552;BME280;49698;48.072;7.800;2024-02-23T09:39:30;97647.72;;;8.86;61.65
63552;BME280;49698;48.072;7.800;2024-02-23T09:41:58;97650.38;;;8.86;61.34
63552;BME280;49698;48.072;7.800;2024-02-23T09:44:32;97642.50;;;8.90;61.27
63552;BME280;49698;48.072;7.800;2024-02-23T09:47:01;97645.22;;;8.98;61.49
63552;BME280;49698;48.072;7.800;2024-02-23T09:49:37;97644.41;;;8.98;61.09
63552;BME280;49698;48.072;7.800;2024-02-23T09:52:07;97650.72;;;8.93;60.76
63552;BME280;49698;48.072;7.800;2024-02-23T09:54:38;97653.38;;;8.85;61.66
63552;BME280;49698;48.072;7.800;2024-02-23T09:57:07;97656.69;;;8.73;61.07
63552;BME280;49698;48.072;7.800;2024-02-23T09:59:36;97648.00;;;8.67;61.45
63552;BME280;49698;48.072;7.800;2024-02-23T10:02:07;97647.22;;;8.67;61.29
63552;BME280;49698;48.072;7.800;2024-02-23T10:04:36;97644.38;;;8.63;61.21
63552;BME280;49698;48.072;7.800;2024-02-23T10:07:06;97636.50;;;8.67;60.74
63552;BME280;49698;48.072;7.800;2024-02-23T10:09:34;97628.34;;;8.72;60.94
63552;BME280;49698;48.072;7.800;2024-02-23T10:12:03;97628.00;;;8.82;60.81
63552;BME280;49698;48.072;7.800;2024-02-23T10:14:31;97628.34;;;8.89;60.63
63552;BME280;49698;48.072;7.800;2024-02-23T10:17:00;97624.88;;;8.97;60.42
63552;BME280;49698;48.072;7.800;2024-02-23T10:19:28;97628.50;;;9.10;60.72
63552;BME280;49698;48.072;7.800;2024-02-23T10:21:56;97627.69;;;9.10;60.21
63552;BME280;49698;48.072;7.800;2024-02-23T10:24:25;97621.22;;;9.02;59.71
63552;BME280;49698;48.072;7.800;2024-02-23T10:26:52;97614.16;;;8.97;60.38
63552;BME280;49698;48.072;7.800;2024-02-23T10:29:22;97613.03;;;8.90;59.70
63552;BME280;49698;48.072;7.800;2024-02-23T10:31:51;97607.38;;;8.91;59.79
63552;BME280;49698;48.072;7.800;2024-02-23T10:34:19;97614.78;;;8.94;59.60
63552;BME280;49698;48.072;7.800;2024-02-23T10:36:47;97609.28;;;8.99;59.07
63552;BME280;49698;48.072;7.800;2024-02-23T10:39:17;97609.09;;;9.04;58.41
63552;BME280;49698;48.072;7.800;2024-02-23T10:41:46;97614.78;;;9.12;58.04
63552;BME280;49698;48.072;7.800;2024-02-23T10:44:15;97602.47;;;9.19;56.87
63552;BME280;49698;48.072;7.800;2024-02-23T10:46:45;97599.31;;;9.26;57.61
63552;BME280;49698;48.072;7.800;2024-02-23T10:49:13;97582.88;;;9.36;57.64
63552;BME280;49698;48.072;7.800;2024-02-23T10:51:42;97580.50;;;9.43;56.89
63552;BME280;49698;48.072;7.800;2024-02-23T10:54:11;97596.28;;;9.45;57.24
63552;BME280;49698;48.072;7.800;2024-02-23T10:56:39;97596.91;;;9.50;57.23
63552;BME280;49698;48.072;7.800;2024-02-23T10:59:07;97608.56;;;9.54;57.13
63552;BME280;49698;48.072;7.800;2024-02-23T11:01:36;97592.78;;;9.53;56.47
63552;BME280;49698;48.072;7.800;2024-02-23T11:04:07;97603.19;;;9.54;56.38
63552;BME280;49698;48.072;7.800;2024-02-23T11:06:35;97597.97;;;9.58;56.72
63552;BME280;49698;48.072;7.800;2024-02-23T11:09:05;97595.78;;;9.51;56.13
63552;BME280;49698;48.072;7.800;2024-02-23T11:11:34;97593.44;;;9.50;56.58
63552;BME280;49698;48.072;7.800;2024-02-23T11:14:07;97596.25;;;9.53;57.19
63552;BME280;49698;48.072;7.800;2024-02-23T11:16:38;97597.66;;;9.60;57.07
63552;BME280;49698;48.072;7.800;2024-02-23T11:19:08;97600.97;;;9.65;56.75
63552;BME280;49698;48.072;7.800;2024-02-23T11:21:38;97605.22;;;9.66;56.69
63552;BME280;49698;48.072;7.800;2024-02-23T11:24:06;97590.84;;;9.71;57.09
63552;BME280;49698;48.072;7.800;2024-02-23T11:26:36;97587.50;;;9.74;57.53
63552;BME280;49698;48.072;7.800;2024-02-23T11:29:09;97594.94;;;9.77;57.23
63552;BME280;49698;48.072;7.800;2024-02-23T11:31:37;97587.84;;;9.64;57.18
63552;BME280;49698;48.072;7.800;2024-02-23T11:34:13;97595.47;;;9.44;57.33
63552;BME280;49698;48.072;7.800;2024-02-23T11:36:41;97592.84;;;9.27;57.65
63552;BME280;49698;48.072;7.800;2024-02-23T11:39:09;97582.94;;;9.19;58.62
63552;BME280;49698;48.072;7.800;2024-02-23T11:41:37;97581.19;;;9.23;58.40
63552;BME280;49698;48.072;7.800;2024-02-23T11:44:05;97585.44;;;9.24;58.19
63552;BME280;49698;48.072;7.800;2024-02-23T11:46:34;97580.69;;;9.21;58.30
63552;BME280;49698;48.072;7.800;2024-02-23T11:49:01;97583.06;;;9.14;58.41
63552;BME280;49698;48.072;7.800;2024-02-23T11:51:31;97575.97;;;9.09;57.97
63552;BME280;49698;48.072;7.800;2024-02-23T11:53:59;97580.38;;;9.14;58.46
63552;BME280;49698;48.072;7.800;2024-02-23T11:56:28;97575.97;;;9.26;58.65
63552;BME280;49698;48.072;7.800;2024-02-23T11:58:56;97567.41;;;9.33;58.13
63552;BME280;49698;48.072;7.800;2024-02-23T12:01:24;97565.72;;;9.37;58.17
63552;BME280;49698;48.072;7.800;2024-02-23T12:03:52;97565.19;;;9.52;58.64
63552;BME280;49698;48.072;7.800;2024-02-23T12:06:19;97574.91;;;9.66;58.30
63552;BME280;49698;48.072;7.800;2024-02-23T12:08:49;97564.34;;;9.69;58.62
63552;BME280;49698;48.072;7.800;2024-02-23T12:11:17;97559.28;;;9.68;58.58
63552;BME280;49698;48.072;7.800;2024-02-23T12:13:46;97561.97;;;9.68;58.47
63552;BME280;49698;48.072;7.800;2024-02-23T12:16:14;97559.75;;;9.70;59.07
63552;BME280;49698;48.072;7.800;2024-02-23T12:18:42;97561.47;;;9.74;59.04
63552;BME280;49698;48.072;7.800;2024-02-23T12:21:10;97553.75;;;9.73;58.88
63552;BME280;49698;48.072;7.800;2024-02-23T12:23:39;97558.34;;;9.64;58.76
63552;BME280;49698;48.072;7.800;2024-02-23T12:26:08;97558.22;;;9.51;59.21
63552;BME280;49698;48.072;7.800;2024-02-23T12:28:35;97559.34;;;9.50;59.47
63552;BME280;49698;48.072;7.800;2024-02-23T12:31:03;97555.84;;;9.59;59.65
63552;BME280;49698;48.072;7.800;2024-02-23T12:33:32;97560.22;;;9.72;59.37
63552;BME280;49698;48.072;7.800;2024-02-23T12:36:01;97563.97;;;9.79;59.47
63552;BME280;49698;48.072;7.800;2024-02-23T12:38:29;97557.50;;;9.80;58.18
63552;BME280;49698;48.072;7.800;2024-02-23T12:40:57;97566.06;;;9.74;57.99
63552;BME280;49698;48.072;7.800;2024-02-23T12:43:26;97555.97;;;9.71;57.38
63552;BME280;49698;48.072;7.800;2024-02-23T12:45:54;97555.03;;;9.67;57.59
63552;BME280;49698;48.072;7.800;2024-02-23T12:48:22;97557.72;;;9.67;57.54
63552;BME280;49698;48.072;7.800;2024-02-23T12:50:51;97557.91;;;9.62;57.34
63552;BME280;49698;48.072;7.800;2024-02-23T12:53:33;97556.97;;;9.58;57.05
63552;BME280;49698;48.072;7.800;2024-02-23T12:56:01;97556.66;;;9.50;56.64
63552;BME280;49698;48.072;7.800;2024-02-23T12:58:31;97554.81;;;9.42;56.93
63552;BME280;49698;48.072;7.800;2024-02-23T13:00:59;97548.50;;;9.38;56.93
63552;BME280;49698;48.072;7.800;2024-02-23T13:03:27;97549.91;;;9.36;57.20
63552;BME280;49698;48.072;7.800;2024-02-23T13:05:55;97543.78;;;9.35;57.40
63552;BME280;49698;48.072;7.800;2024-02-23T13:08:24;97546.13;;;9.37;57.21
63552;BME280;49698;48.072;7.800;2024-02-23T13:10:53;97545.00;;;9.46;57.47
63552;BME280;49698;48.072;7.800;2024-02-23T13:13:21;97528.56;;;9.57;56.85
63552;BME280;49698;48.072;7.800;2024-02-23T13:15:51;97531.53;;;9.64;57.05